Patriot — WDC2859 — position and weather

sailwx.info

Track history (hours):
 
Tides and Currents Weather Stations Pressure Air Temp Water Temp Dewpoint Dewpoint Depression Visibility Wind Speed Wind Dir Waves Ship Positions

Patriot

Owner: AMNAV Maritime Corporation, Oakland, CA. More information available from US FCC via Universal Licensing System and Coast Guard Vessel Documentation Center.

Last reported at 2016-Dec-02 17:33 UTC. Time now 2016-Dec-02 18:09 UTC.
Position N 37°49' W 122°19'.

Length 31 m; draft 4.6 m.

Type: Tug. MMSI: 366998680.

Date/timePositionNaut miles runAvg speedWind from/ knotsBaromVisibWave heightAir tempDewpointWater temp
2016-Dec-02 17:33N 37°49' W 122°19'0 0.0
2016-Dec-02 16:33N 37°49' W 122°19'0 0.0
2016-Dec-02 15:33N 37°49' W 122°19'0 0.0
2016-Dec-02 14:33N 37°49' W 122°19'0 0.0
2016-Dec-02 13:33N 37°49' W 122°19'0 0.0
2016-Dec-02 12:33N 37°49' W 122°19'0 0.0
2016-Dec-02 11:33N 37°49' W 122°19'0 0.0
2016-Dec-02 10:33N 37°49' W 122°19'5 4.8
2016-Dec-02 09:32N 37°52' W 122°24'3 3.2
2016-Dec-02 08:33N 37°55' W 122°22'6 6.1
2016-Dec-02 07:33N 37°49' W 122°21'2 2.0
2016-Dec-02 06:33N 37°49' W 122°19'0 0.0
2016-Dec-02 05:33N 37°49' W 122°19'0 0.0
2016-Dec-02 04:33N 37°49' W 122°19'0 0.0
2016-Dec-02 03:33N 37°49' W 122°19'0 0.0
2016-Dec-02 02:33N 37°49' W 122°19'0 0.0
2016-Dec-02 01:33N 37°49' W 122°19'0 0.0
2016-Dec-02 00:33N 37°49' W 122°19'0 0.0
2016-Dec-01 23:33N 37°49' W 122°19'0 0.0
2016-Dec-01 22:33N 37°49' W 122°19'0 0.0
2016-Dec-01 21:33N 37°49' W 122°19'0 0.0
2016-Dec-01 20:33N 37°49' W 122°19'0 0.0
2016-Dec-01 19:33N 37°49' W 122°19'0 0.0
2016-Dec-01 18:33N 37°49' W 122°19'0 0.0
2016-Dec-01 17:33N 37°49' W 122°19'0 0.0
2016-Dec-01 16:33N 37°49' W 122°19'0 0.0
2016-Dec-01 15:33N 37°49' W 122°19'0 0.0
2016-Dec-01 14:33N 37°49' W 122°19'1 1.1
2016-Dec-01 13:33N 37°49' W 122°20'2 1.6
2016-Dec-01 12:33N 37°48' W 122°18'2 1.7
2016-Dec-01 11:33N 37°49' W 122°19'0 0.0
2016-Dec-01 10:33N 37°49' W 122°19'0 0.0
2016-Dec-01 09:33N 37°49' W 122°19'0 0.0
2016-Dec-01 08:33N 37°49' W 122°19'0 0.0
2016-Dec-01 07:33N 37°49' W 122°19'0 0.0
2016-Dec-01 06:33N 37°49' W 122°19'0 0.0
2016-Dec-01 05:33N 37°49' W 122°19'0 0.0
2016-Dec-01 04:33N 37°49' W 122°19'0 0.0
2016-Dec-01 03:34N 37°49' W 122°19'1 1.1
2016-Dec-01 02:33N 37°49' W 122°20'1 1.4
2016-Dec-01 01:33N 37°48' W 122°21'1 0.7
2016-Dec-01 00:33N 37°48' W 122°21'0 0.0
2016-Nov-30 23:33N 37°48' W 122°21'0 0.0
2016-Nov-30 22:33N 37°48' W 122°21'4 3.7
2016-Nov-30 21:33N 37°51' W 122°23'4 3.8
2016-Nov-30 20:33N 37°55' W 122°22'4 3.6
2016-Nov-30 19:33N 37°52' W 122°24'5 4.7
2016-Nov-30 18:34N 37°49' W 122°19'0 0.0
2016-Nov-30 17:34N 37°49' W 122°19'0 0.0
2016-Nov-30 16:33N 37°49' W 122°19'0 0.0
2016-Nov-30 15:34N 37°49' W 122°19'0 0.0
2016-Nov-30 14:34N 37°49' W 122°19'0 0.0
2016-Nov-30 13:34N 37°49' W 122°19'0 0.0
2016-Nov-30 12:34N 37°49' W 122°19'0 0.0
2016-Nov-30 11:34N 37°49' W 122°19'0 0.0
2016-Nov-30 10:34N 37°49' W 122°19'0 0.0
2016-Nov-30 09:33N 37°49' W 122°19'0 0.0
2016-Nov-30 08:34N 37°49' W 122°19'0 0.0
2016-Nov-30 07:34N 37°49' W 122°19'0 0.0
2016-Nov-30 06:34N 37°49' W 122°19'0 0.0
2016-Nov-30 05:34N 37°49' W 122°19'0 0.0
2016-Nov-30 04:34N 37°49' W 122°19'0 0.0
2016-Nov-30 03:34N 37°49' W 122°19'0 0.0
2016-Nov-30 02:34N 37°49' W 122°19'0 0.0
2016-Nov-30 01:33N 37°49' W 122°19'0 0.0
2016-Nov-30 00:34N 37°49' W 122°19'2 1.6
2016-Nov-29 23:33N 37°48' W 122°20'1 1.4
2016-Nov-29 22:33N 37°48' W 122°18'2 1.8
2016-Nov-29 21:33N 37°49' W 122°19'0 0.1
2016-Nov-29 20:34N 37°49' W 122°19'0 0.0
2016-Nov-29 19:34N 37°49' W 122°19'0 0.0
2016-Nov-29 18:34N 37°49' W 122°19'0 0.0
2016-Nov-29 17:34N 37°49' W 122°19'0 0.0
2016-Nov-29 16:34N 37°49' W 122°19'0 0.0
2016-Nov-29 15:34N 37°49' W 122°19'1 0.9
2016-Nov-29 14:33N 37°49' W 122°19'1 0.9
2016-Nov-29 13:33N 37°48' W 122°21'0 0.0
2016-Nov-29 12:33N 37°48' W 122°21'0 0.0
2016-Nov-29 11:33N 37°48' W 122°21'0 0.0
2016-Nov-29 10:33N 37°48' W 122°21'1 1.2
2016-Nov-29 09:34N 37°48' W 122°19'2 1.6
2016-Nov-29 08:33N 37°49' W 122°19'0 0.0
2016-Nov-29 07:33N 37°49' W 122°19'0 0.0
2016-Nov-29 06:33N 37°49' W 122°19'0 0.0
2016-Nov-29 05:33N 37°49' W 122°19'0 0.0
2016-Nov-29 04:33N 37°49' W 122°19'0 0.0
2016-Nov-29 03:33N 37°49' W 122°19'0 0.0
2016-Nov-29 02:33N 37°49' W 122°19'0 0.0
2016-Nov-29 01:33N 37°49' W 122°19'0 0.0
2016-Nov-29 00:33N 37°49' W 122°19'0 0.0
2016-Nov-28 23:33N 37°49' W 122°19'0 0.0
2016-Nov-28 22:33N 37°49' W 122°19'0 0.0
2016-Nov-28 21:33N 37°49' W 122°19'0 0.0
2016-Nov-28 20:33N 37°49' W 122°19'0 0.0
2016-Nov-28 19:33N 37°49' W 122°19'0 0.0
2016-Nov-28 18:33N 37°49' W 122°19'0 0.0
2016-Nov-28 17:33N 37°49' W 122°19'0 0.0
2016-Nov-28 16:33N 37°49' W 122°19'0 0.0
2016-Nov-28 15:33N 37°49' W 122°19'2 2.0
2016-Nov-28 14:29N 37°48' W 122°17'2 2.0
2016-Nov-28 13:33N 37°48' W 122°20'2 1.6
2016-Nov-28 12:33N 37°49' W 122°19'0 0.0
2016-Nov-28 11:33N 37°49' W 122°19'0 0.0
2016-Nov-28 10:33N 37°49' W 122°19'0 0.0
2016-Nov-28 09:33N 37°49' W 122°19'0 0.0
2016-Nov-28 08:33N 37°49' W 122°19'0 0.0
2016-Nov-28 07:33N 37°49' W 122°19'0 0.0
2016-Nov-28 06:33N 37°49' W 122°19'0 0.0
2016-Nov-28 05:33N 37°49' W 122°19'0 0.0
2016-Nov-28 04:33N 37°49' W 122°19'0 0.0
2016-Nov-28 03:33N 37°49' W 122°19'0 0.0
2016-Nov-28 02:33N 37°49' W 122°19'0 0.0
2016-Nov-28 01:33N 37°49' W 122°19'0 0.0
2016-Nov-28 00:33N 37°49' W 122°19'1 0.9
2016-Nov-27 23:33N 37°49' W 122°19'1 0.9
2016-Nov-27 22:33N 37°49' W 122°19'0 0.0
2016-Nov-27 21:33N 37°49' W 122°19'0 0.0
2016-Nov-27 20:33N 37°49' W 122°19'5 4.2
2016-Nov-27 19:21N 37°52' W 122°24'14 0.5
2016-Nov-26 12:26N 38°04' W 122°15'2 2.1
2016-Nov-26 11:23N 38°03' W 122°17'8 9.1
2016-Nov-26 10:30N 37°59' W 122°25'9 9.5
2016-Nov-26 09:34N 37°50' W 122°22'2 2.1
2016-Nov-26 08:33N 37°48' W 122°21'0 0.0
2016-Nov-26 07:33N 37°48' W 122°21'0 0.0
2016-Nov-26 06:33N 37°48' W 122°21'0 0.0
2016-Nov-26 05:33N 37°48' W 122°21'0 0.0
2016-Nov-26 04:33N 37°48' W 122°21'0 0.0
2016-Nov-26 03:33N 37°48' W 122°21'1 0.9
2016-Nov-26 02:33N 37°48' W 122°20'0 0.1
2016-Nov-26 01:34N 37°48' W 122°20'2 1.5
2016-Nov-26 00:33N 37°49' W 122°19'0 0.0
2016-Nov-25 23:33N 37°49' W 122°19'0 0.0
2016-Nov-25 22:33N 37°49' W 122°19'0 0.0
2016-Nov-25 21:33N 37°49' W 122°19'0 0.0
2016-Nov-25 20:33N 37°49' W 122°19'0 0.0
2016-Nov-25 19:33N 37°49' W 122°19'0 0.0
2016-Nov-25 18:33N 37°49' W 122°19'0 0.0
2016-Nov-25 17:33N 37°49' W 122°19'0 0.0
2016-Nov-25 16:33N 37°49' W 122°19'0 0.0
2016-Nov-25 15:33N 37°49' W 122°19'0 0.0
2016-Nov-25 14:33N 37°49' W 122°19'0 0.0
2016-Nov-25 13:33N 37°49' W 122°19'0 0.0
2016-Nov-25 12:33N 37°49' W 122°19'0 0.0
2016-Nov-25 11:33N 37°49' W 122°19'0 0.0
2016-Nov-25 10:33N 37°49' W 122°19'0 0.0
2016-Nov-25 09:33N 37°49' W 122°19'0 0.0
2016-Nov-25 08:33N 37°49' W 122°19'0 0.0
2016-Nov-25 07:33N 37°49' W 122°19'0 0.0
2016-Nov-25 06:33N 37°49' W 122°19'0 0.0
2016-Nov-25 05:33N 37°49' W 122°19'0 0.0
2016-Nov-25 04:33N 37°49' W 122°19'0 0.0
2016-Nov-25 03:33N 37°49' W 122°19'0 0.0
2016-Nov-25 02:33N 37°49' W 122°19'0 0.0
2016-Nov-25 01:33N 37°49' W 122°19'0 0.0
2016-Nov-25 00:33N 37°49' W 122°19'0 0.0
2016-Nov-24 23:33N 37°49' W 122°19'0 0.0
2016-Nov-24 22:33N 37°49' W 122°19'0 0.0
2016-Nov-24 21:33N 37°49' W 122°19'0 0.0
2016-Nov-24 20:33N 37°49' W 122°19'0 0.0
2016-Nov-24 19:33N 37°49' W 122°19'0 0.0
2016-Nov-24 18:33N 37°49' W 122°19'0 0.0
2016-Nov-24 17:33N 37°49' W 122°19'0 0.0
2016-Nov-24 16:33N 37°49' W 122°19'0 0.0
2016-Nov-24 15:33N 37°49' W 122°19'0 0.0
2016-Nov-24 14:33N 37°49' W 122°19'0 0.0
2016-Nov-24 13:33N 37°49' W 122°19'0 0.0
2016-Nov-24 12:33N 37°49' W 122°19'0 0.0
2016-Nov-24 11:33N 37°49' W 122°19'0 0.0
2016-Nov-24 10:33N 37°49' W 122°19'0 0.0
2016-Nov-24 09:33N 37°49' W 122°19'0 0.0
2016-Nov-24 08:33N 37°49' W 122°19'0 0.0
2016-Nov-24 07:33N 37°49' W 122°19'0 0.0
2016-Nov-24 06:33N 37°49' W 122°19'0 0.0
2016-Nov-24 05:33N 37°49' W 122°19'0 0.0
2016-Nov-24 04:33N 37°49' W 122°19'0 0.0
2016-Nov-24 03:33N 37°49' W 122°19'0 0.0
2016-Nov-24 02:33N 37°49' W 122°19'0 0.3
2016-Nov-24 01:33N 37°49' W 122°19'2 1.6
2016-Nov-24 00:34N 37°48' W 122°18'1 0.5
2016-Nov-23 21:30N 37°48' W 122°20'2 1.7
2016-Nov-23 20:33N 37°49' W 122°19'0 0.1
2016-Nov-23 19:33N 37°49' W 122°19'0 0.0
2016-Nov-23 18:33N 37°49' W 122°19'0 0.0
2016-Nov-23 17:33N 37°49' W 122°19'0 0.0
2016-Nov-23 16:33N 37°49' W 122°19'0 0.0
2016-Nov-23 15:34N 37°49' W 122°19'6 5.7
2016-Nov-23 14:33N 37°53' W 122°24'3 2.5
2016-Nov-23 13:33N 37°54' W 122°22'3 3.0
2016-Nov-23 12:33N 37°53' W 122°25'2 1.9
2016-Nov-23 11:33N 37°55' W 122°25'0 0.0
2016-Nov-23 10:33N 37°55' W 122°25'0 0.0
2016-Nov-23 09:33N 37°55' W 122°25'0 0.0
2016-Nov-23 08:32N 37°55' W 122°25'0 0.0
2016-Nov-23 07:29N 37°55' W 122°25'0 0.0
2016-Nov-23 06:33N 37°55' W 122°25'1 0.2
2016-Nov-23 00:33N 37°54' W 122°25'7 7.0
2016-Nov-22 23:33N 37°49' W 122°19'0 0.0
2016-Nov-22 22:34N 37°49' W 122°19'0 0.0
2016-Nov-22 20:33N 37°49' W 122°19'0 0.0
2016-Nov-22 19:33N 37°49' W 122°19'  
Track history (hours):
 
Tides and Currents Weather Stations Pressure Air Temp Water Temp Dewpoint Dewpoint Depression Visibility Wind Speed Wind Dir Waves Ship Positions

Patriot

Owner: AMNAV Maritime Corporation, Oakland, CA. More information available from US FCC via Universal Licensing System and Coast Guard Vessel Documentation Center.

Last reported at 2016-Dec-02 17:33 UTC. Time now 2016-Dec-02 18:09 UTC.
Position N 37°49' W 122°19'.

Length 31 m; draft 4.6 m.

Type: Tug. MMSI: 366998680.

Date/timePositionNaut miles runAvg speedWind from/ knotsBaromVisibWave heightAir tempDewpointWater temp
2016-Dec-02 17:33N 37°49' W 122°19'0 0.0
2016-Dec-02 16:33N 37°49' W 122°19'0 0.0
2016-Dec-02 15:33N 37°49' W 122°19'0 0.0
2016-Dec-02 14:33N 37°49' W 122°19'0 0.0
2016-Dec-02 13:33N 37°49' W 122°19'0 0.0
2016-Dec-02 12:33N 37°49' W 122°19'0 0.0
2016-Dec-02 11:33N 37°49' W 122°19'0 0.0
2016-Dec-02 10:33N 37°49' W 122°19'5 4.8
2016-Dec-02 09:32N 37°52' W 122°24'3 3.2
2016-Dec-02 08:33N 37°55' W 122°22'6 6.1
2016-Dec-02 07:33N 37°49' W 122°21'2 2.0
2016-Dec-02 06:33N 37°49' W 122°19'0 0.0
2016-Dec-02 05:33N 37°49' W 122°19'0 0.0
2016-Dec-02 04:33N 37°49' W 122°19'0 0.0
2016-Dec-02 03:33N 37°49' W 122°19'0 0.0
2016-Dec-02 02:33N 37°49' W 122°19'0 0.0
2016-Dec-02 01:33N 37°49' W 122°19'0 0.0
2016-Dec-02 00:33N 37°49' W 122°19'0 0.0
2016-Dec-01 23:33N 37°49' W 122°19'0 0.0
2016-Dec-01 22:33N 37°49' W 122°19'0 0.0
2016-Dec-01 21:33N 37°49' W 122°19'0 0.0
2016-Dec-01 20:33N 37°49' W 122°19'0 0.0
2016-Dec-01 19:33N 37°49' W 122°19'0 0.0
2016-Dec-01 18:33N 37°49' W 122°19'0 0.0
2016-Dec-01 17:33N 37°49' W 122°19'0 0.0
2016-Dec-01 16:33N 37°49' W 122°19'0 0.0
2016-Dec-01 15:33N 37°49' W 122°19'0 0.0
2016-Dec-01 14:33N 37°49' W 122°19'1 1.1
2016-Dec-01 13:33N 37°49' W 122°20'2 1.6
2016-Dec-01 12:33N 37°48' W 122°18'2 1.7
2016-Dec-01 11:33N 37°49' W 122°19'0 0.0
2016-Dec-01 10:33N 37°49' W 122°19'0 0.0
2016-Dec-01 09:33N 37°49' W 122°19'0 0.0
2016-Dec-01 08:33N 37°49' W 122°19'0 0.0
2016-Dec-01 07:33N 37°49' W 122°19'0 0.0
2016-Dec-01 06:33N 37°49' W 122°19'0 0.0
2016-Dec-01 05:33N 37°49' W 122°19'0 0.0
2016-Dec-01 04:33N 37°49' W 122°19'0 0.0
2016-Dec-01 03:34N 37°49' W 122°19'1 1.1
2016-Dec-01 02:33N 37°49' W 122°20'1 1.4
2016-Dec-01 01:33N 37°48' W 122°21'1 0.7
2016-Dec-01 00:33N 37°48' W 122°21'0 0.0
2016-Nov-30 23:33N 37°48' W 122°21'0 0.0
2016-Nov-30 22:33N 37°48' W 122°21'4 3.7
2016-Nov-30 21:33N 37°51' W 122°23'4 3.8
2016-Nov-30 20:33N 37°55' W 122°22'4 3.6
2016-Nov-30 19:33N 37°52' W 122°24'5 4.7
2016-Nov-30 18:34N 37°49' W 122°19'0 0.0
2016-Nov-30 17:34N 37°49' W 122°19'0 0.0
2016-Nov-30 16:33N 37°49' W 122°19'0 0.0
2016-Nov-30 15:34N 37°49' W 122°19'0 0.0
2016-Nov-30 14:34N 37°49' W 122°19'0 0.0
2016-Nov-30 13:34N 37°49' W 122°19'0 0.0
2016-Nov-30 12:34N 37°49' W 122°19'0 0.0
2016-Nov-30 11:34N 37°49' W 122°19'0 0.0
2016-Nov-30 10:34N 37°49' W 122°19'0 0.0
2016-Nov-30 09:33N 37°49' W 122°19'0 0.0
2016-Nov-30 08:34N 37°49' W 122°19'0 0.0
2016-Nov-30 07:34N 37°49' W 122°19'0 0.0
2016-Nov-30 06:34N 37°49' W 122°19'0 0.0
2016-Nov-30 05:34N 37°49' W 122°19'0 0.0
2016-Nov-30 04:34N 37°49' W 122°19'0 0.0
2016-Nov-30 03:34N 37°49' W 122°19'0 0.0
2016-Nov-30 02:34N 37°49' W 122°19'0 0.0
2016-Nov-30 01:33N 37°49' W 122°19'0 0.0
2016-Nov-30 00:34N 37°49' W 122°19'2 1.6
2016-Nov-29 23:33N 37°48' W 122°20'1 1.4
2016-Nov-29 22:33N 37°48' W 122°18'2 1.8
2016-Nov-29 21:33N 37°49' W 122°19'0 0.1
2016-Nov-29 20:34N 37°49' W 122°19'0 0.0
2016-Nov-29 19:34N 37°49' W 122°19'0 0.0
2016-Nov-29 18:34N 37°49' W 122°19'0 0.0
2016-Nov-29 17:34N 37°49' W 122°19'0 0.0
2016-Nov-29 16:34N 37°49' W 122°19'0 0.0
2016-Nov-29 15:34N 37°49' W 122°19'1 0.9
2016-Nov-29 14:33N 37°49' W 122°19'1 0.9
2016-Nov-29 13:33N 37°48' W 122°21'0 0.0
2016-Nov-29 12:33N 37°48' W 122°21'0 0.0
2016-Nov-29 11:33N 37°48' W 122°21'0 0.0
2016-Nov-29 10:33N 37°48' W 122°21'1 1.2
2016-Nov-29 09:34N 37°48' W 122°19'2 1.6
2016-Nov-29 08:33N 37°49' W 122°19'0 0.0
2016-Nov-29 07:33N 37°49' W 122°19'0 0.0
2016-Nov-29 06:33N 37°49' W 122°19'0 0.0
2016-Nov-29 05:33N 37°49' W 122°19'0 0.0
2016-Nov-29 04:33N 37°49' W 122°19'0 0.0
2016-Nov-29 03:33N 37°49' W 122°19'0 0.0
2016-Nov-29 02:33N 37°49' W 122°19'0 0.0
2016-Nov-29 01:33N 37°49' W 122°19'0 0.0
2016-Nov-29 00:33N 37°49' W 122°19'0 0.0
2016-Nov-28 23:33N 37°49' W 122°19'0 0.0
2016-Nov-28 22:33N 37°49' W 122°19'0 0.0
2016-Nov-28 21:33N 37°49' W 122°19'0 0.0
2016-Nov-28 20:33N 37°49' W 122°19'0 0.0
2016-Nov-28 19:33N 37°49' W 122°19'0 0.0
2016-Nov-28 18:33N 37°49' W 122°19'0 0.0
2016-Nov-28 17:33N 37°49' W 122°19'0 0.0
2016-Nov-28 16:33N 37°49' W 122°19'0 0.0
2016-Nov-28 15:33N 37°49' W 122°19'2 2.0
2016-Nov-28 14:29N 37°48' W 122°17'2 2.0
2016-Nov-28 13:33N 37°48' W 122°20'2 1.6
2016-Nov-28 12:33N 37°49' W 122°19'0 0.0
2016-Nov-28 11:33N 37°49' W 122°19'0 0.0
2016-Nov-28 10:33N 37°49' W 122°19'0 0.0
2016-Nov-28 09:33N 37°49' W 122°19'0 0.0
2016-Nov-28 08:33N 37°49' W 122°19'0 0.0
2016-Nov-28 07:33N 37°49' W 122°19'0 0.0
2016-Nov-28 06:33N 37°49' W 122°19'0 0.0
2016-Nov-28 05:33N 37°49' W 122°19'0 0.0
2016-Nov-28 04:33N 37°49' W 122°19'0 0.0
2016-Nov-28 03:33N 37°49' W 122°19'0 0.0
2016-Nov-28 02:33N 37°49' W 122°19'0 0.0
2016-Nov-28 01:33N 37°49' W 122°19'0 0.0
2016-Nov-28 00:33N 37°49' W 122°19'1 0.9
2016-Nov-27 23:33N 37°49' W 122°19'1 0.9
2016-Nov-27 22:33N 37°49' W 122°19'0 0.0
2016-Nov-27 21:33N 37°49' W 122°19'0 0.0
2016-Nov-27 20:33N 37°49' W 122°19'5 4.2
2016-Nov-27 19:21N 37°52' W 122°24'14 0.5
2016-Nov-26 12:26N 38°04' W 122°15'2 2.1
2016-Nov-26 11:23N 38°03' W 122°17'8 9.1
2016-Nov-26 10:30N 37°59' W 122°25'9 9.5
2016-Nov-26 09:34N 37°50' W 122°22'2 2.1
2016-Nov-26 08:33N 37°48' W 122°21'0 0.0
2016-Nov-26 07:33N 37°48' W 122°21'0 0.0
2016-Nov-26 06:33N 37°48' W 122°21'0 0.0
2016-Nov-26 05:33N 37°48' W 122°21'0 0.0
2016-Nov-26 04:33N 37°48' W 122°21'0 0.0
2016-Nov-26 03:33N 37°48' W 122°21'1 0.9
2016-Nov-26 02:33N 37°48' W 122°20'0 0.1
2016-Nov-26 01:34N 37°48' W 122°20'2 1.5
2016-Nov-26 00:33N 37°49' W 122°19'0 0.0
2016-Nov-25 23:33N 37°49' W 122°19'0 0.0
2016-Nov-25 22:33N 37°49' W 122°19'0 0.0
2016-Nov-25 21:33N 37°49' W 122°19'0 0.0
2016-Nov-25 20:33N 37°49' W 122°19'0 0.0
2016-Nov-25 19:33N 37°49' W 122°19'0 0.0
2016-Nov-25 18:33N 37°49' W 122°19'0 0.0
2016-Nov-25 17:33N 37°49' W 122°19'0 0.0
2016-Nov-25 16:33N 37°49' W 122°19'0 0.0
2016-Nov-25 15:33N 37°49' W 122°19'0 0.0
2016-Nov-25 14:33N 37°49' W 122°19'0 0.0
2016-Nov-25 13:33N 37°49' W 122°19'0 0.0
2016-Nov-25 12:33N 37°49' W 122°19'0 0.0
2016-Nov-25 11:33N 37°49' W 122°19'0 0.0
2016-Nov-25 10:33N 37°49' W 122°19'0 0.0
2016-Nov-25 09:33N 37°49' W 122°19'0 0.0
2016-Nov-25 08:33N 37°49' W 122°19'0 0.0
2016-Nov-25 07:33N 37°49' W 122°19'0 0.0
2016-Nov-25 06:33N 37°49' W 122°19'0 0.0
2016-Nov-25 05:33N 37°49' W 122°19'0 0.0
2016-Nov-25 04:33N 37°49' W 122°19'0 0.0
2016-Nov-25 03:33N 37°49' W 122°19'0 0.0
2016-Nov-25 02:33N 37°49' W 122°19'0 0.0
2016-Nov-25 01:33N 37°49' W 122°19'0 0.0
2016-Nov-25 00:33N 37°49' W 122°19'0 0.0
2016-Nov-24 23:33N 37°49' W 122°19'0 0.0
2016-Nov-24 22:33N 37°49' W 122°19'0 0.0
2016-Nov-24 21:33N 37°49' W 122°19'0 0.0
2016-Nov-24 20:33N 37°49' W 122°19'0 0.0
2016-Nov-24 19:33N 37°49' W 122°19'0 0.0
2016-Nov-24 18:33N 37°49' W 122°19'0 0.0
2016-Nov-24 17:33N 37°49' W 122°19'0 0.0
2016-Nov-24 16:33N 37°49' W 122°19'0 0.0
2016-Nov-24 15:33N 37°49' W 122°19'0 0.0
2016-Nov-24 14:33N 37°49' W 122°19'0 0.0
2016-Nov-24 13:33N 37°49' W 122°19'0 0.0
2016-Nov-24 12:33N 37°49' W 122°19'0 0.0
2016-Nov-24 11:33N 37°49' W 122°19'0 0.0
2016-Nov-24 10:33N 37°49' W 122°19'0 0.0
2016-Nov-24 09:33N 37°49' W 122°19'0 0.0
2016-Nov-24 08:33N 37°49' W 122°19'0 0.0
2016-Nov-24 07:33N 37°49' W 122°19'0 0.0
2016-Nov-24 06:33N 37°49' W 122°19'0 0.0
2016-Nov-24 05:33N 37°49' W 122°19'0 0.0
2016-Nov-24 04:33N 37°49' W 122°19'0 0.0
2016-Nov-24 03:33N 37°49' W 122°19'0 0.0
2016-Nov-24 02:33N 37°49' W 122°19'0 0.3
2016-Nov-24 01:33N 37°49' W 122°19'2 1.6
2016-Nov-24 00:34N 37°48' W 122°18'1 0.5
2016-Nov-23 21:30N 37°48' W 122°20'2 1.7
2016-Nov-23 20:33N 37°49' W 122°19'0 0.1
2016-Nov-23 19:33N 37°49' W 122°19'0 0.0
2016-Nov-23 18:33N 37°49' W 122°19'0 0.0
2016-Nov-23 17:33N 37°49' W 122°19'0 0.0
2016-Nov-23 16:33N 37°49' W 122°19'0 0.0
2016-Nov-23 15:34N 37°49' W 122°19'6 5.7
2016-Nov-23 14:33N 37°53' W 122°24'3 2.5
2016-Nov-23 13:33N 37°54' W 122°22'3 3.0
2016-Nov-23 12:33N 37°53' W 122°25'2 1.9
2016-Nov-23 11:33N 37°55' W 122°25'0 0.0
2016-Nov-23 10:33N 37°55' W 122°25'0 0.0
2016-Nov-23 09:33N 37°55' W 122°25'0 0.0
2016-Nov-23 08:32N 37°55' W 122°25'0 0.0
2016-Nov-23 07:29N 37°55' W 122°25'0 0.0
2016-Nov-23 06:33N 37°55' W 122°25'1 0.2
2016-Nov-23 00:33N 37°54' W 122°25'7 7.0
2016-Nov-22 23:33N 37°49' W 122°19'0 0.0
2016-Nov-22 22:34N 37°49' W 122°19'0 0.0
2016-Nov-22 20:33N 37°49' W 122°19'0 0.0
2016-Nov-22 19:33N 37°49' W 122°19'  

Dump ship's entire track history